sensor_id;sensor_type;location;lat;lon;timestamp;pressure;altitude;pressure_sealevel;temperature;humidity
25722;BME280;13578;53.450;15.496;2023-08-21T00:00:15;100420.28;;;16.32;100.00
25722;BME280;13578;53.450;15.496;2023-08-21T00:03:15;100414.75;;;16.32;100.00
25722;BME280;13578;53.450;15.496;2023-08-21T00:06:16;100415.28;;;16.36;100.00
25722;BME280;13578;53.450;15.496;2023-08-21T00:09:17;100408.91;;;16.35;100.00
25722;BME280;13578;53.450;15.496;2023-08-21T00:12:17;100404.22;;;16.36;100.00
25722;BME280;13578;53.450;15.496;2023-08-21T00:15:18;100405.41;;;16.33;100.00
25722;BME280;13578;53.450;15.496;2023-08-21T00:18:19;100406.59;;;16.31;100.00
25722;BME280;13578;53.450;15.496;2023-08-21T00:21:20;100408.28;;;16.24;100.00
25722;BME280;13578;53.450;15.496;2023-08-21T00:24:20;100410.25;;;16.13;100.00
25722;BME280;13578;53.450;15.496;2023-08-21T00:27:21;100409.06;;;16.16;100.00
25722;BME280;13578;53.450;15.496;2023-08-21T00:30:22;100417.88;;;16.11;100.00
25722;BME280;13578;53.450;15.496;2023-08-21T00:33:22;100419.22;;;16.07;100.00
25722;BME280;13578;53.450;15.496;2023-08-21T00:36:23;100411.72;;;15.99;100.00
25722;BME280;13578;53.450;15.496;2023-08-21T00:39:23;100417.25;;;15.99;100.00
25722;BME280;13578;53.450;15.496;2023-08-21T00:42:24;100420.16;;;15.98;100.00
25722;BME280;13578;53.450;15.496;2023-08-21T00:45:25;100425.31;;;15.93;100.00
25722;BME280;13578;53.450;15.496;2023-08-21T00:48:26;100419.22;;;15.89;100.00
25722;BME280;13578;53.450;15.496;2023-08-21T00:51:27;100415.72;;;15.87;100.00
25722;BME280;13578;53.450;15.496;2023-08-21T00:54:28;100417.47;;;15.88;100.00
25722;BME280;13578;53.450;15.496;2023-08-21T00:57:30;100413.84;;;15.87;100.00
25722;BME280;13578;53.450;15.496;2023-08-21T01:00:31;100410.19;;;15.87;100.00
25722;BME280;13578;53.450;15.496;2023-08-21T01:03:31;100417.53;;;15.78;100.00
25722;BME280;13578;53.450;15.496;2023-08-21T01:06:32;100414.50;;;15.71;100.00
25722;BME280;13578;53.450;15.496;2023-08-21T01:13:19;100416.78;;;15.58;100.00
25722;BME280;13578;53.450;15.496;2023-08-21T01:16:24;100423.34;;;15.57;100.00
25722;BME280;13578;53.450;15.496;2023-08-21T01:19:43;100421.19;;;15.51;100.00
25722;BME280;13578;53.450;15.496;2023-08-21T01:22:43;100419.44;;;15.50;100.00
25722;BME280;13578;53.450;15.496;2023-08-21T01:25:47;100419.44;;;15.50;100.00
25722;BME280;13578;53.450;15.496;2023-08-21T01:28:47;100421.06;;;15.52;100.00
25722;BME280;13578;53.450;15.496;2023-08-21T01:31:59;100424.38;;;15.56;100.00
25722;BME280;13578;53.450;15.496;2023-08-21T01:35:02;100418.13;;;15.54;100.00
25722;BME280;13578;53.450;15.496;2023-08-21T01:38:05;100419.16;;;15.53;100.00
25722;BME280;13578;53.450;15.496;2023-08-21T01:41:06;100415.09;;;15.47;100.00
25722;BME280;13578;53.450;15.496;2023-08-21T01:44:06;100416.28;;;15.45;100.00
25722;BME280;13578;53.450;15.496;2023-08-21T01:47:07;100410.53;;;15.38;100.00
25722;BME280;13578;53.450;15.496;2023-08-21T01:50:08;100404.56;;;15.33;100.00
25722;BME280;13578;53.450;15.496;2023-08-21T01:53:12;100403.38;;;15.35;100.00
25722;BME280;13578;53.450;15.496;2023-08-21T01:56:12;100406.88;;;15.37;100.00
25722;BME280;13578;53.450;15.496;2023-08-21T01:59:13;100406.72;;;15.39;100.00
25722;BME280;13578;53.450;15.496;2023-08-21T02:02:14;100398.91;;;15.34;100.00
25722;BME280;13578;53.450;15.496;2023-08-21T02:05:14;100401.13;;;15.31;100.00
25722;BME280;13578;53.450;15.496;2023-08-21T02:08:16;100401.88;;;15.23;100.00
25722;BME280;13578;53.450;15.496;2023-08-21T02:11:17;100394.03;;;15.18;100.00
25722;BME280;13578;53.450;15.496;2023-08-21T02:14:21;100386.19;;;15.14;100.00
25722;BME280;13578;53.450;15.496;2023-08-21T02:17:21;100396.97;;;15.17;100.00
25722;BME280;13578;53.450;15.496;2023-08-21T02:20:22;100396.97;;;15.17;100.00
25722;BME280;13578;53.450;15.496;2023-08-21T02:23:23;100387.72;;;15.08;100.00
25722;BME280;13578;53.450;15.496;2023-08-21T02:26:24;100392.34;;;15.07;100.00
25722;BME280;13578;53.450;15.496;2023-08-21T02:29:25;100385.06;;;15.06;100.00
25722;BME280;13578;53.450;15.496;2023-08-21T02:32:25;100372.59;;;15.02;100.00
25722;BME280;13578;53.450;15.496;2023-08-21T02:35:26;100369.72;;;14.94;100.00
25722;BME280;13578;53.450;15.496;2023-08-21T02:38:26;100364.09;;;14.86;100.00
25722;BME280;13578;53.450;15.496;2023-08-21T02:41:27;100357.84;;;14.84;100.00
25722;BME280;13578;53.450;15.496;2023-08-21T02:44:28;100352.75;;;14.89;100.00
25722;BME280;13578;53.450;15.496;2023-08-21T02:47:28;100349.25;;;14.87;100.00
25722;BME280;13578;53.450;15.496;2023-08-21T02:50:29;100338.50;;;14.84;100.00
25722;BME280;13578;53.450;15.496;2023-08-21T02:53:29;100341.41;;;14.82;100.00
25722;BME280;13578;53.450;15.496;2023-08-21T02:56:30;100353.38;;;14.83;100.00
25722;BME280;13578;53.450;15.496;2023-08-21T02:59:31;100351.44;;;14.83;100.00
25722;BME280;13578;53.450;15.496;2023-08-21T03:02:31;100340.13;;;14.76;100.00
25722;BME280;13578;53.450;15.496;2023-08-21T03:05:33;100332.72;;;14.77;100.00
25722;BME280;13578;53.450;15.496;2023-08-21T03:08:33;100336.91;;;14.81;100.00
25722;BME280;13578;53.450;15.496;2023-08-21T03:11:34;100342.88;;;14.86;100.00
25722;BME280;13578;53.450;15.496;2023-08-21T03:14:35;100330.94;;;14.86;100.00
25722;BME280;13578;53.450;15.496;2023-08-21T03:17:35;100331.34;;;14.91;100.00
25722;BME280;13578;53.450;15.496;2023-08-21T03:20:36;100335.72;;;14.84;100.00
25722;BME280;13578;53.450;15.496;2023-08-21T03:23:37;100338.41;;;14.75;100.00
25722;BME280;13578;53.450;15.496;2023-08-21T03:26:37;100334.16;;;14.81;100.00
25722;BME280;13578;53.450;15.496;2023-08-21T03:29:38;100334.16;;;14.81;100.00
25722;BME280;13578;53.450;15.496;2023-08-21T03:32:40;100333.84;;;14.84;100.00
25722;BME280;13578;53.450;15.496;2023-08-21T03:35:40;100333.28;;;14.81;100.00
25722;BME280;13578;53.450;15.496;2023-08-21T03:38:41;100336.06;;;14.81;100.00
25722;BME280;13578;53.450;15.496;2023-08-21T03:41:42;100333.75;;;14.76;100.00
25722;BME280;13578;53.450;15.496;2023-08-21T03:44:42;100334.03;;;14.73;100.00
25722;BME280;13578;53.450;15.496;2023-08-21T03:47:43;100333.03;;;14.74;100.00
25722;BME280;13578;53.450;15.496;2023-08-21T03:50:44;100338.25;;;14.77;100.00
25722;BME280;13578;53.450;15.496;2023-08-21T03:53:44;100345.06;;;14.83;100.00
25722;BME280;13578;53.450;15.496;2023-08-21T03:56:45;100355.97;;;14.84;100.00
25722;BME280;13578;53.450;15.496;2023-08-21T03:59:46;100350.28;;;14.86;100.00
25722;BME280;13578;53.450;15.496;2023-08-21T04:02:46;100355.44;;;14.99;100.00
25722;BME280;13578;53.450;15.496;2023-08-21T04:05:47;100351.34;;;15.03;100.00
25722;BME280;13578;53.450;15.496;2023-08-21T04:08:48;100341.97;;;15.14;100.00
25722;BME280;13578;53.450;15.496;2023-08-21T04:11:51;100344.47;;;15.35;100.00
25722;BME280;13578;53.450;15.496;2023-08-21T04:14:52;100352.84;;;15.43;100.00
25722;BME280;13578;53.450;15.496;2023-08-21T04:17:53;100358.53;;;15.42;100.00
25722;BME280;13578;53.450;15.496;2023-08-21T04:20:53;100363.97;;;15.33;100.00
25722;BME280;13578;53.450;15.496;2023-08-21T04:23:54;100380.56;;;15.33;100.00
25722;BME280;13578;53.450;15.496;2023-08-21T04:26:54;100366.81;;;15.23;100.00
25722;BME280;13578;53.450;15.496;2023-08-21T04:29:55;100367.84;;;15.22;100.00
25722;BME280;13578;53.450;15.496;2023-08-21T04:32:56;100366.94;;;15.22;100.00
25722;BME280;13578;53.450;15.496;2023-08-21T04:35:56;100373.94;;;15.26;100.00
25722;BME280;13578;53.450;15.496;2023-08-21T04:38:57;100372.56;;;15.30;100.00
25722;BME280;13578;53.450;15.496;2023-08-21T04:41:58;100363.34;;;15.39;100.00
25722;BME280;13578;53.450;15.496;2023-08-21T04:44:58;100375.28;;;15.58;100.00
25722;BME280;13578;53.450;15.496;2023-08-21T04:47:59;100364.56;;;15.73;100.00
25722;BME280;13578;53.450;15.496;2023-08-21T04:51:00;100368.38;;;15.90;100.00
25722;BME280;13578;53.450;15.496;2023-08-21T04:54:00;100359.44;;;15.96;100.00
25722;BME280;13578;53.450;15.496;2023-08-21T04:57:01;100354.44;;;16.00;100.00
25722;BME280;13578;53.450;15.496;2023-08-21T05:00:02;100330.97;;;16.04;100.00
25722;BME280;13578;53.450;15.496;2023-08-21T05:03:06;100328.56;;;16.09;100.00
25722;BME280;13578;53.450;15.496;2023-08-21T05:06:06;100319.78;;;16.14;100.00
25722;BME280;13578;53.450;15.496;2023-08-21T05:09:07;100309.78;;;16.21;100.00
25722;BME280;13578;53.450;15.496;2023-08-21T05:12:08;100309.88;;;16.38;100.00
25722;BME280;13578;53.450;15.496;2023-08-21T05:15:09;100307.06;;;16.56;100.00
25722;BME280;13578;53.450;15.496;2023-08-21T05:18:09;100306.44;;;16.78;100.00
25722;BME280;13578;53.450;15.496;2023-08-21T05:21:10;100320.28;;;17.05;100.00
25722;BME280;13578;53.450;15.496;2023-08-21T05:24:10;100346.66;;;17.09;100.00
25722;BME280;13578;53.450;15.496;2023-08-21T05:27:11;100345.94;;;17.07;100.00
25722;BME280;13578;53.450;15.496;2023-08-21T05:30:12;100354.47;;;17.13;100.00
25722;BME280;13578;53.450;15.496;2023-08-21T05:33:13;100343.94;;;17.25;100.00
25722;BME280;13578;53.450;15.496;2023-08-21T05:36:14;100341.38;;;17.49;100.00
25722;BME280;13578;53.450;15.496;2023-08-21T05:39:14;100357.19;;;17.65;100.00
25722;BME280;13578;53.450;15.496;2023-08-21T05:42:15;100385.28;;;17.78;100.00
25722;BME280;13578;53.450;15.496;2023-08-21T05:45:16;100404.03;;;17.68;100.00
25722;BME280;13578;53.450;15.496;2023-08-21T05:48:16;100403.50;;;17.64;100.00
25722;BME280;13578;53.450;15.496;2023-08-21T05:51:17;100381.81;;;17.59;100.00
25722;BME280;13578;53.450;15.496;2023-08-21T05:54:18;100370.34;;;17.54;100.00
25722;BME280;13578;53.450;15.496;2023-08-21T05:57:19;100353.00;;;17.52;100.00
25722;BME280;13578;53.450;15.496;2023-08-21T06:00:19;100349.03;;;17.63;100.00
25722;BME280;13578;53.450;15.496;2023-08-21T06:03:20;100341.22;;;17.67;100.00
25722;BME280;13578;53.450;15.496;2023-08-21T06:06:20;100343.63;;;17.70;100.00
25722;BME280;13578;53.450;15.496;2023-08-21T06:09:21;100357.72;;;17.76;100.00
25722;BME280;13578;53.450;15.496;2023-08-21T06:12:22;100376.84;;;18.13;100.00
25722;BME280;13578;53.450;15.496;2023-08-21T06:15:23;100374.59;;;18.33;100.00
25722;BME280;13578;53.450;15.496;2023-08-21T06:18:23;100392.09;;;18.41;100.00
25722;BME280;13578;53.450;15.496;2023-08-21T06:21:24;100431.53;;;18.37;100.00
25722;BME280;13578;53.450;15.496;2023-08-21T06:24:25;100442.63;;;18.37;100.00
25722;BME280;13578;53.450;15.496;2023-08-21T06:27:26;100449.25;;;18.36;100.00
25722;BME280;13578;53.450;15.496;2023-08-21T06:30:26;100452.00;;;18.36;100.00
25722;BME280;13578;53.450;15.496;2023-08-21T06:33:27;100459.50;;;18.44;100.00
25722;BME280;13578;53.450;15.496;2023-08-21T06:36:28;100468.50;;;18.62;100.00
25722;BME280;13578;53.450;15.496;2023-08-21T06:39:28;100459.81;;;18.73;100.00
25722;BME280;13578;53.450;15.496;2023-08-21T06:42:29;100460.16;;;18.87;100.00
25722;BME280;13578;53.450;15.496;2023-08-21T06:45:30;100480.47;;;19.04;100.00
25722;BME280;13578;53.450;15.496;2023-08-21T06:48:32;100491.38;;;19.22;100.00
25722;BME280;13578;53.450;15.496;2023-08-21T06:51:33;100491.69;;;19.35;100.00
25722;BME280;13578;53.450;15.496;2023-08-21T06:54:33;100509.59;;;19.41;100.00
25722;BME280;13578;53.450;15.496;2023-08-21T06:57:34;100518.25;;;19.46;100.00
25722;BME280;13578;53.450;15.496;2023-08-21T07:00:34;100532.50;;;19.60;100.00
25722;BME280;13578;53.450;15.496;2023-08-21T07:03:35;100545.97;;;19.79;100.00
25722;BME280;13578;53.450;15.496;2023-08-21T07:06:36;100549.84;;;19.70;100.00
25722;BME280;13578;53.450;15.496;2023-08-21T07:09:37;100548.75;;;19.79;100.00
25722;BME280;13578;53.450;15.496;2023-08-21T07:12:38;100545.94;;;19.96;100.00
25722;BME280;13578;53.450;15.496;2023-08-21T07:15:38;100545.16;;;20.10;100.00
25722;BME280;13578;53.450;15.496;2023-08-21T07:18:39;100552.97;;;20.15;100.00
25722;BME280;13578;53.450;15.496;2023-08-21T07:21:39;100543.13;;;20.04;100.00
25722;BME280;13578;53.450;15.496;2023-08-21T07:24:40;100547.25;;;20.08;100.00
25722;BME280;13578;53.450;15.496;2023-08-21T07:27:41;100542.19;;;20.12;100.00
25722;BME280;13578;53.450;15.496;2023-08-21T07:30:46;100547.72;;;20.20;100.00
25722;BME280;13578;53.450;15.496;2023-08-21T07:33:46;100558.19;;;20.41;100.00
25722;BME280;13578;53.450;15.496;2023-08-21T07:36:47;100553.56;;;20.57;100.00
25722;BME280;13578;53.450;15.496;2023-08-21T07:39:48;100557.13;;;20.74;100.00
25722;BME280;13578;53.450;15.496;2023-08-21T07:42:48;100563.69;;;20.81;100.00
25722;BME280;13578;53.450;15.496;2023-08-21T07:45:49;100555.22;;;20.89;100.00
25722;BME280;13578;53.450;15.496;2023-08-21T07:48:53;100571.25;;;20.96;100.00
25722;BME280;13578;53.450;15.496;2023-08-21T07:51:54;100567.78;;;20.93;100.00
25722;BME280;13578;53.450;15.496;2023-08-21T07:54:55;100570.06;;;20.90;100.00
25722;BME280;13578;53.450;15.496;2023-08-21T07:57:56;100569.78;;;20.85;100.00
25722;BME280;13578;53.450;15.496;2023-08-21T08:00:57;100572.84;;;20.67;100.00
25722;BME280;13578;53.450;15.496;2023-08-21T08:03:58;100572.47;;;20.46;100.00
25722;BME280;13578;53.450;15.496;2023-08-21T08:06:58;100571.72;;;20.53;100.00
25722;BME280;13578;53.450;15.496;2023-08-21T08:09:59;100568.78;;;20.77;100.00
25722;BME280;13578;53.450;15.496;2023-08-21T08:13:00;100570.75;;;20.92;100.00
25722;BME280;13578;53.450;15.496;2023-08-21T08:16:01;100579.19;;;20.84;100.00
25722;BME280;13578;53.450;15.496;2023-08-21T08:19:02;100577.19;;;20.92;100.00
25722;BME280;13578;53.450;15.496;2023-08-21T08:22:04;100572.59;;;21.00;100.00
25722;BME280;13578;53.450;15.496;2023-08-21T08:25:05;100564.44;;;21.13;100.00
25722;BME280;13578;53.450;15.496;2023-08-21T08:28:06;100566.44;;;21.42;100.00
25722;BME280;13578;53.450;15.496;2023-08-21T08:31:06;100558.25;;;21.56;100.00
25722;BME280;13578;53.450;15.496;2023-08-21T08:34:09;100567.03;;;21.68;100.00
25722;BME280;13578;53.450;15.496;2023-08-21T08:37:21;100567.13;;;21.60;100.00
25722;BME280;13578;53.450;15.496;2023-08-21T08:40:22;100557.22;;;21.57;100.00
25722;BME280;13578;53.450;15.496;2023-08-21T08:43:25;100563.16;;;21.84;100.00
25722;BME280;13578;53.450;15.496;2023-08-21T08:46:32;100563.91;;;22.08;100.00
25722;BME280;13578;53.450;15.496;2023-08-21T08:49:35;100561.22;;;21.99;100.00
25722;BME280;13578;53.450;15.496;2023-08-21T08:52:46;100579.91;;;22.14;100.00
25722;BME280;13578;53.450;15.496;2023-08-21T08:55:50;100569.28;;;22.09;100.00
25722;BME280;13578;53.450;15.496;2023-08-21T08:58:51;100567.44;;;22.16;100.00
25722;BME280;13578;53.450;15.496;2023-08-21T09:01:52;100557.56;;;22.35;100.00
25722;BME280;13578;53.450;15.496;2023-08-21T09:04:53;100561.59;;;22.69;100.00
25722;BME280;13578;53.450;15.496;2023-08-21T09:08:09;100568.47;;;22.67;100.00
25722;BME280;13578;53.450;15.496;2023-08-21T09:11:16;100571.88;;;22.62;100.00
25722;BME280;13578;53.450;15.496;2023-08-21T09:14:26;100568.88;;;22.42;100.00
25722;BME280;13578;53.450;15.496;2023-08-21T09:17:28;100572.72;;;22.26;100.00
25722;BME280;13578;53.450;15.496;2023-08-21T09:20:35;100575.25;;;22.21;100.00
25722;BME280;13578;53.450;15.496;2023-08-21T09:23:37;100560.69;;;22.26;100.00
25722;BME280;13578;53.450;15.496;2023-08-21T09:26:38;100565.63;;;22.39;100.00
25722;BME280;13578;53.450;15.496;2023-08-21T09:29:40;100567.63;;;22.45;100.00
25722;BME280;13578;53.450;15.496;2023-08-21T09:32:58;100563.22;;;22.57;100.00
25722;BME280;13578;53.450;15.496;2023-08-21T09:36:00;100565.22;;;22.63;100.00
25722;BME280;13578;53.450;15.496;2023-08-21T09:39:05;100562.38;;;22.57;100.00
25722;BME280;13578;53.450;15.496;2023-08-21T09:42:07;100560.50;;;22.64;100.00
25722;BME280;13578;53.450;15.496;2023-08-21T09:45:10;100563.88;;;22.81;100.00
25722;BME280;13578;53.450;15.496;2023-08-21T09:48:11;100562.53;;;22.77;100.00
25722;BME280;13578;53.450;15.496;2023-08-21T09:51:12;100544.50;;;22.79;100.00
25722;BME280;13578;53.450;15.496;2023-08-21T09:54:13;100526.72;;;22.87;100.00
25722;BME280;13578;53.450;15.496;2023-08-21T09:57:15;100529.13;;;22.90;100.00
25722;BME280;13578;53.450;15.496;2023-08-21T10:00:16;100533.94;;;23.03;100.00
25722;BME280;13578;53.450;15.496;2023-08-21T10:03:21;100529.16;;;22.97;100.00
25722;BME280;13578;53.450;15.496;2023-08-21T10:06:23;100532.72;;;23.12;100.00
25722;BME280;13578;53.450;15.496;2023-08-21T10:09:24;100532.44;;;23.29;100.00
25722;BME280;13578;53.450;15.496;2023-08-21T10:12:27;100523.84;;;23.30;100.00
25722;BME280;13578;53.450;15.496;2023-08-21T10:15:29;100544.88;;;23.55;100.00
25722;BME280;13578;53.450;15.496;2023-08-21T10:18:36;100531.91;;;23.82;100.00
25722;BME280;13578;53.450;15.496;2023-08-21T10:21:37;100528.44;;;23.80;100.00
25722;BME280;13578;53.450;15.496;2023-08-21T10:24:38;100533.53;;;23.63;100.00
25722;BME280;13578;53.450;15.496;2023-08-21T10:27:40;100529.41;;;23.59;100.00
25722;BME280;13578;53.450;15.496;2023-08-21T10:30:42;100535.31;;;23.71;100.00
25722;BME280;13578;53.450;15.496;2023-08-21T10:33:46;100519.22;;;23.86;100.00
25722;BME280;13578;53.450;15.496;2023-08-21T10:39:56;100519.84;;;24.37;100.00
25722;BME280;13578;53.450;15.496;2023-08-21T10:42:57;100523.53;;;24.44;100.00
25722;BME280;13578;53.450;15.496;2023-08-21T10:45:58;100515.31;;;24.36;100.00
25722;BME280;13578;53.450;15.496;2023-08-21T10:48:58;100518.53;;;24.46;100.00
25722;BME280;13578;53.450;15.496;2023-08-21T10:51:59;100519.63;;;24.38;100.00
25722;BME280;13578;53.450;15.496;2023-08-21T10:55:00;100517.19;;;24.22;100.00
25722;BME280;13578;53.450;15.496;2023-08-21T10:58:02;100527.13;;;24.24;100.00
25722;BME280;13578;53.450;15.496;2023-08-21T11:01:03;100530.13;;;24.16;100.00
25722;BME280;13578;53.450;15.496;2023-08-21T11:04:03;100531.59;;;24.05;100.00
25722;BME280;13578;53.450;15.496;2023-08-21T11:07:04;100535.69;;;24.03;100.00
25722;BME280;13578;53.450;15.496;2023-08-21T11:10:09;100537.84;;;24.01;100.00
25722;BME280;13578;53.450;15.496;2023-08-21T11:13:10;100524.06;;;24.06;100.00
25722;BME280;13578;53.450;15.496;2023-08-21T11:16:11;100504.72;;;23.76;100.00
25722;BME280;13578;53.450;15.496;2023-08-21T11:19:12;100515.13;;;23.47;100.00
25722;BME280;13578;53.450;15.496;2023-08-21T11:22:12;100522.75;;;23.67;100.00
25722;BME280;13578;53.450;15.496;2023-08-21T11:25:14;100520.03;;;23.80;100.00
25722;BME280;13578;53.450;15.496;2023-08-21T11:28:16;100511.56;;;24.08;100.00
25722;BME280;13578;53.450;15.496;2023-08-21T11:31:17;100502.03;;;24.03;100.00
25722;BME280;13578;53.450;15.496;2023-08-21T11:34:19;100512.41;;;24.02;100.00
25722;BME280;13578;53.450;15.496;2023-08-21T11:37:21;100504.84;;;24.03;100.00
25722;BME280;13578;53.450;15.496;2023-08-21T11:40:22;100502.03;;;24.03;100.00
25722;BME280;13578;53.450;15.496;2023-08-21T11:43:35;100492.56;;;23.97;100.00
25722;BME280;13578;53.450;15.496;2023-08-21T11:46:36;100489.31;;;23.93;100.00
25722;BME280;13578;53.450;15.496;2023-08-21T11:49:41;100484.75;;;23.92;100.00
25722;BME280;13578;53.450;15.496;2023-08-21T11:52:42;100481.22;;;23.84;100.00
25722;BME280;13578;53.450;15.496;2023-08-21T11:55:43;100498.72;;;23.79;100.00
25722;BME280;13578;53.450;15.496;2023-08-21T11:58:46;100487.41;;;23.66;100.00
25722;BME280;13578;53.450;15.496;2023-08-21T12:01:50;100489.81;;;23.69;100.00
25722;BME280;13578;53.450;15.496;2023-08-21T12:05:03;100491.41;;;23.91;100.00
25722;BME280;13578;53.450;15.496;2023-08-21T12:08:04;100484.19;;;24.10;100.00
25722;BME280;13578;53.450;15.496;2023-08-21T12:11:05;100503.59;;;24.12;100.00
25722;BME280;13578;53.450;15.496;2023-08-21T12:14:06;100497.94;;;23.99;100.00
25722;BME280;13578;53.450;15.496;2023-08-21T12:17:07;100502.63;;;23.91;100.00
25722;BME280;13578;53.450;15.496;2023-08-21T12:20:08;100494.69;;;24.02;100.00
25722;BME280;13578;53.450;15.496;2023-08-21T12:23:11;100491.34;;;24.26;100.00
25722;BME280;13578;53.450;15.496;2023-08-21T12:26:11;100485.09;;;24.38;100.00
25722;BME280;13578;53.450;15.496;2023-08-21T12:29:12;100475.78;;;24.31;100.00
25722;BME280;13578;53.450;15.496;2023-08-21T12:32:13;100477.94;;;24.15;100.00
25722;BME280;13578;53.450;15.496;2023-08-21T12:35:14;100476.47;;;24.33;100.00
25722;BME280;13578;53.450;15.496;2023-08-21T12:38:14;100461.81;;;24.57;100.00
25722;BME280;13578;53.450;15.496;2023-08-21T12:41:15;100476.09;;;24.96;100.00
25722;BME280;13578;53.450;15.496;2023-08-21T12:44:16;100460.09;;;25.10;100.00
25722;BME280;13578;53.450;15.496;2023-08-21T12:47:17;100464.63;;;25.25;100.00
25722;BME280;13578;53.450;15.496;2023-08-21T12:50:18;100448.38;;;25.27;100.00
25722;BME280;13578;53.450;15.496;2023-08-21T12:53:19;100439.72;;;25.35;100.00
25722;BME280;13578;53.450;15.496;2023-08-21T12:56:21;100437.38;;;25.39;100.00
25722;BME280;13578;53.450;15.496;2023-08-21T12:59:22;100427.19;;;25.37;100.00
25722;BME280;13578;53.450;15.496;2023-08-21T13:02:23;100429.88;;;24.99;100.00
25722;BME280;13578;53.450;15.496;2023-08-21T13:05:23;100436.75;;;25.10;100.00
25722;BME280;13578;53.450;15.496;2023-08-21T13:08:24;100429.00;;;25.18;100.00
25722;BME280;13578;53.450;15.496;2023-08-21T13:11:25;100440.00;;;25.20;100.00
25722;BME280;13578;53.450;15.496;2023-08-21T13:14:25;100438.91;;;25.21;100.00
25722;BME280;13578;53.450;15.496;2023-08-21T13:17:26;100438.50;;;25.04;100.00
25722;BME280;13578;53.450;15.496;2023-08-21T13:20:27;100453.19;;;25.13;100.00
25722;BME280;13578;53.450;15.496;2023-08-21T13:23:29;100405.25;;;25.01;100.00
25722;BME280;13578;53.450;15.496;2023-08-21T13:26:30;100447.56;;;25.13;100.00
25722;BME280;13578;53.450;15.496;2023-08-21T13:29:31;100416.69;;;25.13;100.00
25722;BME280;13578;53.450;15.496;2023-08-21T13:32:32;100392.03;;;25.21;100.00
25722;BME280;13578;53.450;15.496;2023-08-21T13:35:32;100389.69;;;25.18;100.00
25722;BME280;13578;53.450;15.496;2023-08-21T13:38:33;100404.38;;;25.14;100.00
25722;BME280;13578;53.450;15.496;2023-08-21T13:41:34;100419.06;;;25.09;100.00
25722;BME280;13578;53.450;15.496;2023-08-21T13:44:34;100426.63;;;25.02;100.00
25722;BME280;13578;53.450;15.496;2023-08-21T13:47:35;100425.56;;;25.03;100.00
25722;BME280;13578;53.450;15.496;2023-08-21T13:50:36;100386.22;;;25.10;100.00
25722;BME280;13578;53.450;15.496;2023-08-21T13:53:36;100401.16;;;24.97;100.00
25722;BME280;13578;53.450;15.496;2023-08-21T13:56:37;100381.91;;;25.00;100.00
25722;BME280;13578;53.450;15.496;2023-08-21T13:59:38;100398.56;;;24.95;100.00
25722;BME280;13578;53.450;15.496;2023-08-21T14:02:39;100354.97;;;24.93;91.87
25722;BME280;13578;53.450;15.496;2023-08-21T14:05:41;100358.00;;;24.84;91.20
25722;BME280;13578;53.450;15.496;2023-08-21T14:08:41;100395.38;;;24.85;95.23
25722;BME280;13578;53.450;15.496;2023-08-21T14:11:43;100386.94;;;24.65;96.77
25722;BME280;13578;53.450;15.496;2023-08-21T14:14:43;100411.34;;;24.44;100.00
25722;BME280;13578;53.450;15.496;2023-08-21T14:17:44;100447.13;;;24.42;100.00
25722;BME280;13578;53.450;15.496;2023-08-21T14:20:45;100442.38;;;24.22;100.00
25722;BME280;13578;53.450;15.496;2023-08-21T14:23:46;100451.16;;;24.13;100.00
25722;BME280;13578;53.450;15.496;2023-08-21T14:26:46;100452.69;;;24.08;100.00
25722;BME280;13578;53.450;15.496;2023-08-21T14:29:47;100441.69;;;24.07;100.00
25722;BME280;13578;53.450;15.496;2023-08-21T14:32:47;100441.88;;;23.99;100.00
25722;BME280;13578;53.450;15.496;2023-08-21T14:35:49;100434.56;;;24.11;100.00
25722;BME280;13578;53.450;15.496;2023-08-21T14:38:49;100427.22;;;24.10;100.00
25722;BME280;13578;53.450;15.496;2023-08-21T14:41:55;100438.03;;;24.13;100.00
25722;BME280;13578;53.450;15.496;2023-08-21T14:44:56;100447.75;;;24.10;100.00
25722;BME280;13578;53.450;15.496;2023-08-21T14:47:56;100433.69;;;24.04;100.00
25722;BME280;13578;53.450;15.496;2023-08-21T14:50:57;100458.91;;;23.97;100.00
25722;BME280;13578;53.450;15.496;2023-08-21T14:53:58;100461.28;;;23.93;100.00
25722;BME280;13578;53.450;15.496;2023-08-21T14:56:58;100457.19;;;24.03;100.00
25722;BME280;13578;53.450;15.496;2023-08-21T14:59:59;100458.47;;;24.00;100.00
25722;BME280;13578;53.450;15.496;2023-08-21T15:02:59;100461.53;;;24.12;100.00
25722;BME280;13578;53.450;15.496;2023-08-21T15:06:00;100464.56;;;24.10;100.00
25722;BME280;13578;53.450;15.496;2023-08-21T15:09:01;100441.25;;;24.03;100.00
25722;BME280;13578;53.450;15.496;2023-08-21T15:12:02;100456.53;;;23.94;100.00
25722;BME280;13578;53.450;15.496;2023-08-21T15:15:03;100454.31;;;23.83;100.00
25722;BME280;13578;53.450;15.496;2023-08-21T15:18:04;100455.13;;;23.76;100.00
25722;BME280;13578;53.450;15.496;2023-08-21T15:21:05;100453.56;;;23.60;100.00
25722;BME280;13578;53.450;15.496;2023-08-21T15:24:06;100464.09;;;23.52;100.00
25722;BME280;13578;53.450;15.496;2023-08-21T15:27:07;100453.13;;;23.57;100.00
25722;BME280;13578;53.450;15.496;2023-08-21T15:30:08;100453.75;;;23.52;100.00